sensor_id;sensor_type;location;lat;lon;timestamp;P1;durP1;ratioP1;P2;durP2;ratioP2
48963;SDS011;34776;48.180;16.420;2023-02-11T00:00:57;33.83;;;21.02;;
48963;SDS011;34776;48.180;16.420;2023-02-11T00:03:23;34.08;;;21.13;;
48963;SDS011;34776;48.180;16.420;2023-02-11T00:05:59;33.58;;;21.23;;
48963;SDS011;34776;48.180;16.420;2023-02-11T00:08:26;35.38;;;21.17;;
48963;SDS011;34776;48.180;16.420;2023-02-11T00:10:55;36.00;;;21.70;;
48963;SDS011;34776;48.180;16.420;2023-02-11T00:13:22;31.63;;;19.73;;
48963;SDS011;34776;48.180;16.420;2023-02-11T00:15:48;33.13;;;18.90;;
48963;SDS011;34776;48.180;16.420;2023-02-11T00:18:14;35.30;;;22.00;;
48963;SDS011;34776;48.180;16.420;2023-02-11T00:20:40;35.67;;;21.52;;
48963;SDS011;34776;48.180;16.420;2023-02-11T00:23:06;34.55;;;20.80;;
48963;SDS011;34776;48.180;16.420;2023-02-11T00:25:32;31.77;;;20.08;;
48963;SDS011;34776;48.180;16.420;2023-02-11T00:27:58;37.28;;;22.30;;
48963;SDS011;34776;48.180;16.420;2023-02-11T00:30:24;37.13;;;22.95;;
48963;SDS011;34776;48.180;16.420;2023-02-11T00:32:49;33.38;;;20.95;;
48963;SDS011;34776;48.180;16.420;2023-02-11T00:35:14;33.40;;;20.60;;
48963;SDS011;34776;48.180;16.420;2023-02-11T00:37:40;30.00;;;19.23;;
48963;SDS011;34776;48.180;16.420;2023-02-11T00:40:05;31.98;;;20.80;;
48963;SDS011;34776;48.180;16.420;2023-02-11T00:42:31;32.72;;;21.40;;
48963;SDS011;34776;48.180;16.420;2023-02-11T00:44:59;36.03;;;21.40;;
48963;SDS011;34776;48.180;16.420;2023-02-11T00:47:25;36.90;;;23.05;;
48963;SDS011;34776;48.180;16.420;2023-02-11T00:49:50;31.98;;;19.63;;
48963;SDS011;34776;48.180;16.420;2023-02-11T00:52:15;36.72;;;22.33;;
48963;SDS011;34776;48.180;16.420;2023-02-11T00:54:41;31.05;;;19.70;;
48963;SDS011;34776;48.180;16.420;2023-02-11T00:57:06;34.65;;;21.10;;
48963;SDS011;34776;48.180;16.420;2023-02-11T00:59:31;28.77;;;17.95;;
48963;SDS011;34776;48.180;16.420;2023-02-11T01:01:57;33.05;;;19.33;;
48963;SDS011;34776;48.180;16.420;2023-02-11T01:04:22;31.27;;;19.27;;
48963;SDS011;34776;48.180;16.420;2023-02-11T01:06:47;30.60;;;19.20;;
48963;SDS011;34776;48.180;16.420;2023-02-11T01:09:13;29.95;;;18.88;;
48963;SDS011;34776;48.180;16.420;2023-02-11T01:11:38;29.95;;;17.70;;
48963;SDS011;34776;48.180;16.420;2023-02-11T01:14:04;31.45;;;19.38;;
48963;SDS011;34776;48.180;16.420;2023-02-11T01:16:29;28.58;;;18.38;;
48963;SDS011;34776;48.180;16.420;2023-02-11T01:18:54;27.20;;;17.75;;
48963;SDS011;34776;48.180;16.420;2023-02-11T01:21:20;31.15;;;19.55;;
48963;SDS011;34776;48.180;16.420;2023-02-11T01:23:45;30.63;;;19.48;;
48963;SDS011;34776;48.180;16.420;2023-02-11T01:26:11;32.75;;;20.30;;
48963;SDS011;34776;48.180;16.420;2023-02-11T01:28:36;32.20;;;18.30;;
48963;SDS011;34776;48.180;16.420;2023-02-11T01:31:02;32.80;;;19.33;;
48963;SDS011;34776;48.180;16.420;2023-02-11T01:33:28;32.00;;;19.60;;
48963;SDS011;34776;48.180;16.420;2023-02-11T01:35:54;34.35;;;19.88;;
48963;SDS011;34776;48.180;16.420;2023-02-11T01:38:21;34.00;;;19.65;;
48963;SDS011;34776;48.180;16.420;2023-02-11T01:40:58;33.03;;;20.17;;
48963;SDS011;34776;48.180;16.420;2023-02-11T01:43:27;30.05;;;17.88;;
48963;SDS011;34776;48.180;16.420;2023-02-11T01:45:59;30.63;;;18.90;;
48963;SDS011;34776;48.180;16.420;2023-02-11T01:48:37;32.40;;;19.40;;
48963;SDS011;34776;48.180;16.420;2023-02-11T01:51:17;34.97;;;19.73;;
48963;SDS011;34776;48.180;16.420;2023-02-11T01:53:46;31.52;;;20.17;;
48963;SDS011;34776;48.180;16.420;2023-02-11T01:56:32;32.97;;;19.75;;
48963;SDS011;34776;48.180;16.420;2023-02-11T01:59:21;31.95;;;20.95;;
48963;SDS011;34776;48.180;16.420;2023-02-11T02:01:52;32.60;;;20.80;;
48963;SDS011;34776;48.180;16.420;2023-02-11T02:04:22;36.08;;;20.50;;
48963;SDS011;34776;48.180;16.420;2023-02-11T02:06:58;31.50;;;18.77;;
48963;SDS011;34776;48.180;16.420;2023-02-11T02:09:28;34.50;;;21.38;;
48963;SDS011;34776;48.180;16.420;2023-02-11T02:11:57;38.95;;;23.85;;
48963;SDS011;34776;48.180;16.420;2023-02-11T02:14:22;33.58;;;20.10;;
48963;SDS011;34776;48.180;16.420;2023-02-11T02:16:47;33.08;;;20.52;;
48963;SDS011;34776;48.180;16.420;2023-02-11T02:22:28;30.58;;;18.92;;
48963;SDS011;34776;48.180;16.420;2023-02-11T02:25:39;29.23;;;18.40;;
48963;SDS011;34776;48.180;16.420;2023-02-11T02:28:51;33.22;;;22.15;;
48963;SDS011;34776;48.180;16.420;2023-02-11T02:34:35;32.17;;;20.73;;
48963;SDS011;34776;48.180;16.420;2023-02-11T02:37:10;39.20;;;22.75;;
48963;SDS011;34776;48.180;16.420;2023-02-11T02:39:42;39.47;;;25.98;;
48963;SDS011;34776;48.180;16.420;2023-02-11T02:42:12;39.17;;;25.52;;
48963;SDS011;34776;48.180;16.420;2023-02-11T02:44:38;37.63;;;22.73;;
48963;SDS011;34776;48.180;16.420;2023-02-11T02:47:04;39.42;;;25.40;;
48963;SDS011;34776;48.180;16.420;2023-02-11T02:49:29;36.50;;;24.20;;
48963;SDS011;34776;48.180;16.420;2023-02-11T03:03:42;38.65;;;24.13;;
48963;SDS011;34776;48.180;16.420;2023-02-11T03:06:12;39.90;;;25.55;;
48963;SDS011;34776;48.180;16.420;2023-02-11T03:08:50;41.97;;;24.85;;
48963;SDS011;34776;48.180;16.420;2023-02-11T03:11:21;39.65;;;25.02;;
48963;SDS011;34776;48.180;16.420;2023-02-11T03:13:48;38.92;;;25.70;;
48963;SDS011;34776;48.180;16.420;2023-02-11T03:16:16;39.35;;;25.73;;
48963;SDS011;34776;48.180;16.420;2023-02-11T03:18:49;43.72;;;27.95;;
48963;SDS011;34776;48.180;16.420;2023-02-11T03:21:20;43.30;;;27.63;;
48963;SDS011;34776;48.180;16.420;2023-02-11T03:23:53;41.75;;;26.88;;
48963;SDS011;34776;48.180;16.420;2023-02-11T03:26:28;40.90;;;26.42;;
48963;SDS011;34776;48.180;16.420;2023-02-11T03:31:40;39.75;;;26.27;;
48963;SDS011;34776;48.180;16.420;2023-02-11T03:34:15;40.08;;;25.30;;
48963;SDS011;34776;48.180;16.420;2023-02-11T03:36:51;36.28;;;24.85;;
48963;SDS011;34776;48.180;16.420;2023-02-11T03:39:24;38.67;;;26.13;;
48963;SDS011;34776;48.180;16.420;2023-02-11T03:41:54;39.67;;;25.90;;
48963;SDS011;34776;48.180;16.420;2023-02-11T03:44:24;47.03;;;28.83;;
48963;SDS011;34776;48.180;16.420;2023-02-11T03:46:53;37.92;;;25.73;;
48963;SDS011;34776;48.180;16.420;2023-02-11T03:49:20;38.40;;;26.00;;
48963;SDS011;34776;48.180;16.420;2023-02-11T03:51:47;40.15;;;26.25;;
48963;SDS011;34776;48.180;16.420;2023-02-11T03:54:18;38.42;;;24.65;;
48963;SDS011;34776;48.180;16.420;2023-02-11T03:56:50;40.67;;;26.42;;
48963;SDS011;34776;48.180;16.420;2023-02-11T03:59:17;36.00;;;25.70;;
48963;SDS011;34776;48.180;16.420;2023-02-11T04:01:43;39.70;;;25.52;;
48963;SDS011;34776;48.180;16.420;2023-02-11T04:04:09;40.53;;;26.67;;
48963;SDS011;34776;48.180;16.420;2023-02-11T04:06:34;37.30;;;24.77;;
48963;SDS011;34776;48.180;16.420;2023-02-11T04:09:00;36.25;;;25.25;;
48963;SDS011;34776;48.180;16.420;2023-02-11T04:11:26;39.65;;;25.95;;
48963;SDS011;34776;48.180;16.420;2023-02-11T04:13:51;33.55;;;23.45;;
48963;SDS011;34776;48.180;16.420;2023-02-11T04:16:16;38.65;;;24.75;;
48963;SDS011;34776;48.180;16.420;2023-02-11T04:18:42;36.42;;;24.75;;
48963;SDS011;34776;48.180;16.420;2023-02-11T04:21:07;35.85;;;24.52;;
48963;SDS011;34776;48.180;16.420;2023-02-11T04:23:33;39.20;;;25.02;;
48963;SDS011;34776;48.180;16.420;2023-02-11T04:25:58;33.90;;;22.23;;
48963;SDS011;34776;48.180;16.420;2023-02-11T04:28:24;34.78;;;22.77;;
48963;SDS011;34776;48.180;16.420;2023-02-11T04:30:50;36.42;;;23.60;;
48963;SDS011;34776;48.180;16.420;2023-02-11T04:33:16;37.65;;;25.00;;
48963;SDS011;34776;48.180;16.420;2023-02-11T04:35:41;40.33;;;25.33;;
48963;SDS011;34776;48.180;16.420;2023-02-11T04:38:06;43.33;;;26.80;;
48963;SDS011;34776;48.180;16.420;2023-02-11T04:40:32;46.63;;;28.90;;
48963;SDS011;34776;48.180;16.420;2023-02-11T04:42:57;35.25;;;24.92;;
48963;SDS011;34776;48.180;16.420;2023-02-11T04:45:22;38.13;;;25.85;;
48963;SDS011;34776;48.180;16.420;2023-02-11T04:47:48;43.83;;;28.05;;
48963;SDS011;34776;48.180;16.420;2023-02-11T04:50:13;47.00;;;30.17;;
48963;SDS011;34776;48.180;16.420;2023-02-11T04:52:39;39.53;;;27.13;;
48963;SDS011;34776;48.180;16.420;2023-02-11T04:55:04;41.53;;;26.25;;
48963;SDS011;34776;48.180;16.420;2023-02-11T04:57:30;45.85;;;27.33;;
48963;SDS011;34776;48.180;16.420;2023-02-11T04:59:56;39.97;;;27.73;;
48963;SDS011;34776;48.180;16.420;2023-02-11T05:02:21;43.53;;;28.50;;
48963;SDS011;34776;48.180;16.420;2023-02-11T05:04:46;40.03;;;26.48;;
48963;SDS011;34776;48.180;16.420;2023-02-11T05:07:12;42.30;;;27.02;;
48963;SDS011;34776;48.180;16.420;2023-02-11T05:09:37;39.22;;;27.30;;
48963;SDS011;34776;48.180;16.420;2023-02-11T05:12:02;43.35;;;27.45;;
48963;SDS011;34776;48.180;16.420;2023-02-11T05:14:28;38.75;;;25.20;;
48963;SDS011;34776;48.180;16.420;2023-02-11T05:16:53;39.70;;;26.58;;
48963;SDS011;34776;48.180;16.420;2023-02-11T05:19:18;38.05;;;26.98;;
48963;SDS011;34776;48.180;16.420;2023-02-11T05:21:44;40.05;;;28.08;;
48963;SDS011;34776;48.180;16.420;2023-02-11T05:24:09;39.58;;;26.42;;
48963;SDS011;34776;48.180;16.420;2023-02-11T05:26:34;37.42;;;25.17;;
48963;SDS011;34776;48.180;16.420;2023-02-11T05:29:00;42.38;;;28.42;;
48963;SDS011;34776;48.180;16.420;2023-02-11T05:31:26;40.88;;;27.05;;
48963;SDS011;34776;48.180;16.420;2023-02-11T05:33:51;38.13;;;26.25;;
48963;SDS011;34776;48.180;16.420;2023-02-11T05:36:17;43.08;;;28.58;;
48963;SDS011;34776;48.180;16.420;2023-02-11T05:38:42;36.90;;;26.35;;
48963;SDS011;34776;48.180;16.420;2023-02-11T05:41:07;41.08;;;26.50;;
48963;SDS011;34776;48.180;16.420;2023-02-11T05:43:33;39.38;;;24.90;;
48963;SDS011;34776;48.180;16.420;2023-02-11T05:45:59;37.28;;;24.50;;
48963;SDS011;34776;48.180;16.420;2023-02-11T05:48:25;34.40;;;24.13;;
48963;SDS011;34776;48.180;16.420;2023-02-11T05:50:50;34.03;;;23.85;;
48963;SDS011;34776;48.180;16.420;2023-02-11T05:53:16;38.90;;;26.38;;
48963;SDS011;34776;48.180;16.420;2023-02-11T05:55:41;40.55;;;25.25;;
48963;SDS011;34776;48.180;16.420;2023-02-11T05:58:08;36.63;;;24.58;;
48963;SDS011;34776;48.180;16.420;2023-02-11T06:00:33;35.22;;;24.75;;
48963;SDS011;34776;48.180;16.420;2023-02-11T06:02:59;35.58;;;24.30;;
48963;SDS011;34776;48.180;16.420;2023-02-11T06:05:24;33.05;;;23.27;;
48963;SDS011;34776;48.180;16.420;2023-02-11T06:07:50;34.58;;;24.15;;
48963;SDS011;34776;48.180;16.420;2023-02-11T06:10:16;43.03;;;26.83;;
48963;SDS011;34776;48.180;16.420;2023-02-11T06:12:41;33.90;;;23.58;;
48963;SDS011;34776;48.180;16.420;2023-02-11T06:15:07;36.50;;;23.00;;
48963;SDS011;34776;48.180;16.420;2023-02-11T06:17:32;36.72;;;24.38;;
48963;SDS011;34776;48.180;16.420;2023-02-11T06:20:00;32.78;;;23.75;;
48963;SDS011;34776;48.180;16.420;2023-02-11T06:22:27;32.40;;;23.90;;
48963;SDS011;34776;48.180;16.420;2023-02-11T06:24:53;35.20;;;24.23;;
48963;SDS011;34776;48.180;16.420;2023-02-11T06:27:18;35.05;;;23.77;;
48963;SDS011;34776;48.180;16.420;2023-02-11T06:29:44;33.33;;;23.25;;
48963;SDS011;34776;48.180;16.420;2023-02-11T06:32:10;46.95;;;24.48;;
48963;SDS011;34776;48.180;16.420;2023-02-11T06:34:36;33.42;;;23.20;;
48963;SDS011;34776;48.180;16.420;2023-02-11T06:37:02;37.55;;;25.33;;
48963;SDS011;34776;48.180;16.420;2023-02-11T06:39:27;35.92;;;25.10;;
48963;SDS011;34776;48.180;16.420;2023-02-11T06:41:52;36.53;;;25.77;;
48963;SDS011;34776;48.180;16.420;2023-02-11T06:44:18;38.83;;;24.88;;
48963;SDS011;34776;48.180;16.420;2023-02-11T06:46:43;37.00;;;25.25;;
48963;SDS011;34776;48.180;16.420;2023-02-11T06:49:09;36.75;;;25.50;;
48963;SDS011;34776;48.180;16.420;2023-02-11T06:51:34;39.85;;;24.10;;
48963;SDS011;34776;48.180;16.420;2023-02-11T06:54:00;30.58;;;20.02;;
48963;SDS011;34776;48.180;16.420;2023-02-11T06:56:25;33.45;;;22.60;;
48963;SDS011;34776;48.180;16.420;2023-02-11T06:58:54;37.60;;;23.83;;
48963;SDS011;34776;48.180;16.420;2023-02-11T07:01:21;35.38;;;23.67;;
48963;SDS011;34776;48.180;16.420;2023-02-11T07:03:47;38.63;;;23.60;;
48963;SDS011;34776;48.180;16.420;2023-02-11T07:06:15;37.55;;;23.15;;
48963;SDS011;34776;48.180;16.420;2023-02-11T07:08:42;33.95;;;23.30;;
48963;SDS011;34776;48.180;16.420;2023-02-11T07:11:28;37.67;;;24.40;;
48963;SDS011;34776;48.180;16.420;2023-02-11T07:13:55;35.97;;;24.40;;
48963;SDS011;34776;48.180;16.420;2023-02-11T07:16:24;39.78;;;25.77;;
48963;SDS011;34776;48.180;16.420;2023-02-11T07:18:49;37.50;;;25.35;;
48963;SDS011;34776;48.180;16.420;2023-02-11T07:21:17;39.67;;;25.70;;
48963;SDS011;34776;48.180;16.420;2023-02-11T07:23:44;36.72;;;23.88;;
48963;SDS011;34776;48.180;16.420;2023-02-11T07:26:11;36.60;;;25.17;;
48963;SDS011;34776;48.180;16.420;2023-02-11T07:28:40;35.45;;;21.70;;
48963;SDS011;34776;48.180;16.420;2023-02-11T07:33:36;35.22;;;23.33;;
48963;SDS011;34776;48.180;16.420;2023-02-11T07:36:02;30.80;;;22.77;;
48963;SDS011;34776;48.180;16.420;2023-02-11T07:38:30;42.70;;;26.63;;
48963;SDS011;34776;48.180;16.420;2023-02-11T07:40:58;38.70;;;24.20;;
48963;SDS011;34776;48.180;16.420;2023-02-11T07:43:25;33.88;;;22.70;;
48963;SDS011;34776;48.180;16.420;2023-02-11T07:45:50;32.63;;;20.80;;
48963;SDS011;34776;48.180;16.420;2023-02-11T07:48:15;34.97;;;21.80;;
48963;SDS011;34776;48.180;16.420;2023-02-11T07:50:41;33.25;;;21.08;;
48963;SDS011;34776;48.180;16.420;2023-02-11T07:53:06;31.77;;;23.25;;
48963;SDS011;34776;48.180;16.420;2023-02-11T07:55:32;38.22;;;23.30;;
48963;SDS011;34776;48.180;16.420;2023-02-11T07:57:57;38.45;;;24.52;;
48963;SDS011;34776;48.180;16.420;2023-02-11T08:00:24;36.25;;;22.63;;
48963;SDS011;34776;48.180;16.420;2023-02-11T08:02:49;34.28;;;20.90;;
48963;SDS011;34776;48.180;16.420;2023-02-11T08:05:15;34.15;;;21.50;;
48963;SDS011;34776;48.180;16.420;2023-02-11T08:07:40;32.13;;;23.67;;
48963;SDS011;34776;48.180;16.420;2023-02-11T08:10:06;42.17;;;26.23;;
48963;SDS011;34776;48.180;16.420;2023-02-11T08:12:31;30.67;;;22.17;;
48963;SDS011;34776;48.180;16.420;2023-02-11T08:14:56;37.25;;;25.05;;
48963;SDS011;34776;48.180;16.420;2023-02-11T08:17:23;33.40;;;22.13;;
48963;SDS011;34776;48.180;16.420;2023-02-11T08:19:48;38.70;;;24.15;;
48963;SDS011;34776;48.180;16.420;2023-02-11T08:22:13;32.42;;;22.92;;
48963;SDS011;34776;48.180;16.420;2023-02-11T08:24:39;36.08;;;23.00;;
48963;SDS011;34776;48.180;16.420;2023-02-11T08:27:04;34.95;;;23.02;;
48963;SDS011;34776;48.180;16.420;2023-02-11T08:29:29;40.90;;;25.98;;
48963;SDS011;34776;48.180;16.420;2023-02-11T08:31:55;37.40;;;24.38;;
48963;SDS011;34776;48.180;16.420;2023-02-11T08:34:20;36.05;;;23.45;;
48963;SDS011;34776;48.180;16.420;2023-02-11T08:36:46;36.17;;;23.38;;
48963;SDS011;34776;48.180;16.420;2023-02-11T08:39:16;34.95;;;23.08;;
48963;SDS011;34776;48.180;16.420;2023-02-11T08:41:46;36.15;;;23.63;;
48963;SDS011;34776;48.180;16.420;2023-02-11T08:44:14;33.78;;;23.40;;
48963;SDS011;34776;48.180;16.420;2023-02-11T08:46:39;33.20;;;23.45;;
48963;SDS011;34776;48.180;16.420;2023-02-11T08:49:05;35.53;;;23.00;;
48963;SDS011;34776;48.180;16.420;2023-02-11T08:51:30;35.05;;;25.10;;
48963;SDS011;34776;48.180;16.420;2023-02-11T08:53:56;31.58;;;22.63;;
48963;SDS011;34776;48.180;16.420;2023-02-11T08:56:22;38.10;;;23.92;;
48963;SDS011;34776;48.180;16.420;2023-02-11T08:58:47;31.48;;;22.40;;
48963;SDS011;34776;48.180;16.420;2023-02-11T09:01:17;30.45;;;20.92;;
48963;SDS011;34776;48.180;16.420;2023-02-11T09:03:45;33.40;;;21.88;;
48963;SDS011;34776;48.180;16.420;2023-02-11T09:06:12;32.05;;;21.45;;
48963;SDS011;34776;48.180;16.420;2023-02-11T09:08:39;31.10;;;22.55;;
48963;SDS011;34776;48.180;16.420;2023-02-11T09:11:07;32.63;;;23.17;;
48963;SDS011;34776;48.180;16.420;2023-02-11T09:13:33;35.15;;;23.77;;
48963;SDS011;34776;48.180;16.420;2023-02-11T09:16:00;30.50;;;22.17;;
48963;SDS011;34776;48.180;16.420;2023-02-11T09:18:26;34.60;;;22.98;;
48963;SDS011;34776;48.180;16.420;2023-02-11T09:20:52;36.17;;;23.90;;
48963;SDS011;34776;48.180;16.420;2023-02-11T09:23:18;33.80;;;23.23;;
48963;SDS011;34776;48.180;16.420;2023-02-11T09:25:43;35.65;;;22.90;;
48963;SDS011;34776;48.180;16.420;2023-02-11T09:28:09;36.33;;;23.92;;
48963;SDS011;34776;48.180;16.420;2023-02-11T09:30:37;37.80;;;24.13;;
48963;SDS011;34776;48.180;16.420;2023-02-11T09:33:03;33.65;;;23.13;;
48963;SDS011;34776;48.180;16.420;2023-02-11T09:35:28;34.28;;;24.40;;
48963;SDS011;34776;48.180;16.420;2023-02-11T09:37:54;31.83;;;21.20;;
48963;SDS011;34776;48.180;16.420;2023-02-11T09:40:19;33.42;;;22.27;;
48963;SDS011;34776;48.180;16.420;2023-02-11T09:42:50;34.90;;;23.25;;
48963;SDS011;34776;48.180;16.420;2023-02-11T09:45:18;33.88;;;21.85;;
48963;SDS011;34776;48.180;16.420;2023-02-11T09:47:49;35.80;;;22.25;;
48963;SDS011;34776;48.180;16.420;2023-02-11T09:50:23;31.80;;;22.02;;
48963;SDS011;34776;48.180;16.420;2023-02-11T09:52:55;33.33;;;23.40;;
48963;SDS011;34776;48.180;16.420;2023-02-11T09:55:26;31.33;;;21.80;;
48963;SDS011;34776;48.180;16.420;2023-02-11T09:57:52;28.67;;;21.13;;
48963;SDS011;34776;48.180;16.420;2023-02-11T10:02:57;34.17;;;19.75;;
48963;SDS011;34776;48.180;16.420;2023-02-11T10:10:39;46.85;;;21.40;;
48963;SDS011;34776;48.180;16.420;2023-02-11T10:21:30;32.25;;;19.92;;
48963;SDS011;34776;48.180;16.420;2023-02-11T10:24:09;25.83;;;18.35;;
48963;SDS011;34776;48.180;16.420;2023-02-11T10:26:36;21.60;;;17.73;;
48963;SDS011;34776;48.180;16.420;2023-02-11T10:29:09;37.40;;;17.60;;
48963;SDS011;34776;48.180;16.420;2023-02-11T10:31:44;25.02;;;17.80;;
48963;SDS011;34776;48.180;16.420;2023-02-11T10:34:12;28.13;;;17.45;;
48963;SDS011;34776;48.180;16.420;2023-02-11T10:36:39;25.95;;;18.50;;
48963;SDS011;34776;48.180;16.420;2023-02-11T10:39:12;28.50;;;18.92;;
48963;SDS011;34776;48.180;16.420;2023-02-11T10:41:41;51.15;;;18.70;;
48963;SDS011;34776;48.180;16.420;2023-02-11T10:44:15;24.60;;;18.60;;
48963;SDS011;34776;48.180;16.420;2023-02-11T10:46:47;32.90;;;15.93;;
48963;SDS011;34776;48.180;16.420;2023-02-11T10:49:31;23.77;;;16.67;;
48963;SDS011;34776;48.180;16.420;2023-02-11T10:54:36;55.78;;;18.17;;
48963;SDS011;34776;48.180;16.420;2023-02-11T10:57:02;24.17;;;17.58;;
48963;SDS011;34776;48.180;16.420;2023-02-11T10:59:30;23.58;;;16.60;;
48963;SDS011;34776;48.180;16.420;2023-02-11T11:02:00;58.25;;;17.73;;
48963;SDS011;34776;48.180;16.420;2023-02-11T11:06:57;42.85;;;19.10;;
48963;SDS011;34776;48.180;16.420;2023-02-11T11:13:01;20.23;;;15.23;;
48963;SDS011;34776;48.180;16.420;2023-02-11T11:15:19;49.80;;;17.13;;
48963;SDS011;34776;48.180;16.420;2023-02-11T11:18:13;30.45;;;14.70;;
48963;SDS011;34776;48.180;16.420;2023-02-11T11:20:43;48.17;;;16.13;;
48963;SDS011;34776;48.180;16.420;2023-02-11T11:23:21;23.20;;;15.98;;
48963;SDS011;34776;48.180;16.420;2023-02-11T11:26:05;21.95;;;15.77;;
48963;SDS011;34776;48.180;16.420;2023-02-11T11:31:27;20.83;;;15.50;;
48963;SDS011;34776;48.180;16.420;2023-02-11T11:33:58;23.40;;;16.10;;
48963;SDS011;34776;48.180;16.420;2023-02-11T11:36:32;22.77;;;14.40;;
48963;SDS011;34776;48.180;16.420;2023-02-11T11:39:01;20.98;;;14.65;;
48963;SDS011;34776;48.180;16.420;2023-02-11T11:41:39;23.30;;;15.23;;
48963;SDS011;34776;48.180;16.420;2023-02-11T11:44:25;21.85;;;14.30;;
48963;SDS011;34776;48.180;16.420;2023-02-11T11:49:39;18.23;;;13.10;;
48963;SDS011;34776;48.180;16.420;2023-02-11T11:55:37;19.85;;;14.20;;
48963;SDS011;34776;48.180;16.420;2023-02-11T11:57:45;44.50;;;14.25;;
48963;SDS011;34776;48.180;16.420;2023-02-11T12:00:20;21.23;;;11.93;;
48963;SDS011;34776;48.180;16.420;2023-02-11T12:03:03;19.50;;;12.38;;
48963;SDS011;34776;48.180;16.420;2023-02-11T12:10:48;17.35;;;12.13;;
48963;SDS011;34776;48.180;16.420;2023-02-11T12:24:15;16.73;;;11.70;;
48963;SDS011;34776;48.180;16.420;2023-02-11T12:26:44;21.50;;;15.07;;
48963;SDS011;34776;48.180;16.420;2023-02-11T12:34:48;15.40;;;10.35;;
48963;SDS011;34776;48.180;16.420;2023-02-11T12:37:35;17.00;;;9.63;;
48963;SDS011;34776;48.180;16.420;2023-02-11T12:43:02;25.27;;;11.45;;
48963;SDS011;34776;48.180;16.420;2023-02-11T12:48:22;20.58;;;11.50;;
48963;SDS011;34776;48.180;16.420;2023-02-11T12:53:38;21.52;;;12.45;;
48963;SDS011;34776;48.180;16.420;2023-02-11T12:56:39;22.13;;;12.82;;
48963;SDS011;34776;48.180;16.420;2023-02-11T13:02:18;20.58;;;13.75;;
48963;SDS011;34776;48.180;16.420;2023-02-11T13:05:03;24.02;;;13.30;;
48963;SDS011;34776;48.180;16.420;2023-02-11T13:07:36;19.73;;;13.18;;
48963;SDS011;34776;48.180;16.420;2023-02-11T13:12:38;23.05;;;14.15;;
48963;SDS011;34776;48.180;16.420;2023-02-11T13:15:28;22.58;;;13.10;;
48963;SDS011;34776;48.180;16.420;2023-02-11T13:18:03;80.60;;;17.48;;
48963;SDS011;34776;48.180;16.420;2023-02-11T13:20:35;23.17;;;14.00;;
48963;SDS011;34776;48.180;16.420;2023-02-11T13:23:24;23.30;;;14.52;;
48963;SDS011;34776;48.180;16.420;2023-02-11T13:31:35;48.70;;;16.88;;
48963;SDS011;34776;48.180;16.420;2023-02-11T13:34:00;25.80;;;16.58;;
48963;SDS011;34776;48.180;16.420;2023-02-11T13:36:27;26.02;;;15.30;;
48963;SDS011;34776;48.180;16.420;2023-02-11T13:39:03;23.60;;;15.73;;
48963;SDS011;34776;48.180;16.420;2023-02-11T13:41:31;24.33;;;15.02;;
48963;SDS011;34776;48.180;16.420;2023-02-11T13:44:25;24.38;;;15.98;;
48963;SDS011;34776;48.180;16.420;2023-02-11T13:46:57;24.55;;;16.73;;
48963;SDS011;34776;48.180;16.420;2023-02-11T13:49:30;27.67;;;16.73;;
48963;SDS011;34776;48.180;16.420;2023-02-11T13:51:59;26.65;;;17.77;;
48963;SDS011;34776;48.180;16.420;2023-02-11T13:54:28;24.95;;;16.90;;
48963;SDS011;34776;48.180;16.420;2023-02-11T13:59:45;29.33;;;17.20;;
48963;SDS011;34776;48.180;16.420;2023-02-11T14:05:28;31.33;;;17.08;;
48963;SDS011;34776;48.180;16.420;2023-02-11T14:08:15;28.05;;;17.55;;
48963;SDS011;34776;48.180;16.420;2023-02-11T14:16:17;28.33;;;17.48;;
48963;SDS011;34776;48.180;16.420;2023-02-11T14:21:16;23.50;;;16.17;;
48963;SDS011;34776;48.180;16.420;2023-02-11T14:23:44;24.48;;;16.75;;
48963;SDS011;34776;48.180;16.420;2023-02-11T14:28:50;24.40;;;15.77;;
48963;SDS011;34776;48.180;16.420;2023-02-11T14:31:23;27.55;;;16.48;;
48963;SDS011;34776;48.180;16.420;2023-02-11T14:33:56;23.80;;;16.13;;
48963;SDS011;34776;48.180;16.420;2023-02-11T14:39:31;31.58;;;16.75;;
48963;SDS011;34776;48.180;16.420;2023-02-11T14:42:14;26.95;;;16.55;;
48963;SDS011;34776;48.180;16.420;2023-02-11T14:44:43;24.65;;;15.32;;
48963;SDS011;34776;48.180;16.420;2023-02-11T14:47:12;23.83;;;16.15;;
48963;SDS011;34776;48.180;16.420;2023-02-11T14:49:43;22.40;;;15.45;;
48963;SDS011;34776;48.180;16.420;2023-02-11T14:52:18;21.85;;;14.35;;
48963;SDS011;34776;48.180;16.420;2023-02-11T14:54:49;19.55;;;14.25;;
48963;SDS011;34776;48.180;16.420;2023-02-11T14:57:17;20.48;;;13.70;;
48963;SDS011;34776;48.180;16.420;2023-02-11T14:59:57;20.48;;;13.70;;
48963;SDS011;34776;48.180;16.420;2023-02-11T15:02:32;24.95;;;14.15;;
48963;SDS011;34776;48.180;16.420;2023-02-11T15:07:48;18.77;;;12.55;;
48963;SDS011;34776;48.180;16.420;2023-02-11T15:10:27;20.17;;;13.90;;
48963;SDS011;34776;48.180;16.420;2023-02-11T15:13:02;18.60;;;12.60;;
48963;SDS011;34776;48.180;16.420;2023-02-11T15:15:29;17.80;;;12.05;;
48963;SDS011;34776;48.180;16.420;2023-02-11T15:17:57;18.27;;;13.35;;
48963;SDS011;34776;48.180;16.420;2023-02-11T15:20:26;16.20;;;12.50;;
48963;SDS011;34776;48.180;16.420;2023-02-11T15:22:56;18.38;;;12.70;;
48963;SDS011;34776;48.180;16.420;2023-02-11T15:25:25;15.88;;;11.38;;
48963;SDS011;34776;48.180;16.420;2023-02-11T15:27:53;19.27;;;12.95;;
48963;SDS011;34776;48.180;16.420;2023-02-11T15:32:49;17.55;;;13.18;;
48963;SDS011;34776;48.180;16.420;2023-02-11T15:35:16;16.95;;;11.82;;
48963;SDS011;34776;48.180;16.420;2023-02-11T15:37:42;15.88;;;11.63;;
48963;SDS011;34776;48.180;16.420;2023-02-11T15:40:10;14.43;;;10.95;;
48963;SDS011;34776;48.180;16.420;2023-02-11T15:42:36;15.00;;;12.07;;
48963;SDS011;34776;48.180;16.420;2023-02-11T15:47:49;19.88;;;12.63;;
48963;SDS011;34776;48.180;16.420;2023-02-11T15:50:21;17.30;;;12.32;;
48963;SDS011;34776;48.180;16.420;2023-02-11T15:52:49;16.80;;;11.60;;
48963;SDS011;34776;48.180;16.420;2023-02-11T15:55:15;16.95;;;12.15;;
48963;SDS011;34776;48.180;16.420;2023-02-11T15:57:48;15.00;;;11.02;;
48963;SDS011;34776;48.180;16.420;2023-02-11T16:00:18;16.90;;;10.93;;
48963;SDS011;34776;48.180;16.420;2023-02-11T16:02:45;17.25;;;11.63;;
48963;SDS011;34776;48.180;16.420;2023-02-11T16:05:30;13.88;;;11.27;;
48963;SDS011;34776;48.180;16.420;2023-02-11T16:07:59;14.90;;;11.75;;
48963;SDS011;34776;48.180;16.420;2023-02-11T16:10:37;15.43;;;11.48;;
48963;SDS011;34776;48.180;16.420;2023-02-11T16:15:58;18.20;;;13.02;;
48963;SDS011;34776;48.180;16.420;2023-02-11T16:18:29;18.08;;;11.73;;
48963;SDS011;34776;48.180;16.420;2023-02-11T16:21:01;18.48;;;12.82;;
48963;SDS011;34776;48.180;16.420;2023-02-11T16:23:38;16.52;;;11.55;;
48963;SDS011;34776;48.180;16.420;2023-02-11T16:26:09;14.68;;;12.15;;
48963;SDS011;34776;48.180;16.420;2023-02-11T16:28:45;17.35;;;12.23;;